createdAt,value
2018-03-19T00:01:16.522Z,62.34
2018-03-19T00:03:49.759Z,62.37
2018-03-19T00:06:23.013Z,62.52
2018-03-19T00:08:56.300Z,62.17
2018-03-19T00:11:29.604Z,62.36
2018-03-19T00:14:02.863Z,62.60
2018-03-19T01:47:41.945Z,62.52
2018-03-19T01:50:15.206Z,62.62
2018-03-19T01:52:50.318Z,62.90
2018-03-19T01:55:24.340Z,62.51
2018-03-19T01:57:57.634Z,62.83
2018-03-19T03:31:35.140Z,61.74
2018-03-19T03:34:08.397Z,61.65
2018-03-19T03:36:41.696Z,61.72
2018-03-19T03:39:14.963Z,61.69
2018-03-19T03:41:49.007Z,62.07
2018-03-19T03:44:22.265Z,62.15
2018-03-19T04:45:54.387Z,61.81
2018-03-19T04:48:27.677Z,62.05
2018-03-19T04:51:00.958Z,62.62
2018-03-19T04:53:34.218Z,62.64
2018-03-19T04:56:07.530Z,63.03
2018-03-19T04:58:40.781Z,63.31
2018-03-19T05:30:55.097Z,65.12
2018-03-19T05:33:28.354Z,64.66
2018-03-19T05:36:02.410Z,64.67
2018-03-19T05:38:35.747Z,64.42
2018-03-19T05:41:08.977Z,64.26
2018-03-19T05:43:42.253Z,63.85
2018-03-19T05:46:16.303Z,63.54
2018-03-19T05:48:49.557Z,63.34
2018-03-19T05:51:23.613Z,62.85
2018-03-19T05:53:56.873Z,62.17
2018-03-19T05:56:30.172Z,62.44
2018-03-19T05:59:03.442Z,62.64
2018-03-19T06:01:36.734Z,62.77
2018-03-19T06:04:09.994Z,62.73
2018-03-19T06:06:43.268Z,63.01
2018-03-19T06:09:16.521Z,63.14
2018-03-19T06:11:49.821Z,63.21
2018-03-19T06:14:23.081Z,63.16
2018-03-19T06:16:56.368Z,63.14
2018-03-19T06:19:29.655Z,63.26
2018-03-19T06:22:02.935Z,63.26
2018-03-19T06:24:36.222Z,63.47
2018-03-19T06:27:09.522Z,63.48
2018-03-19T06:29:42.780Z,64.13
2018-03-19T06:32:16.821Z,64.68
2018-03-19T06:34:50.089Z,65.56
2018-03-19T06:37:24.142Z,65.38
2018-03-19T06:39:57.439Z,66.43
2018-03-19T06:42:30.715Z,66.15
2018-03-19T06:45:03.983Z,65.72
2018-03-19T06:47:37.264Z,65.63
2018-03-19T06:50:10.537Z,65.46
2018-03-19T06:52:43.836Z,65.52
2018-03-19T06:55:17.094Z,65.18
2018-03-19T06:57:50.386Z,65.01
2018-03-19T07:00:23.645Z,64.63
2018-03-19T07:02:57.693Z,64.53
2018-03-19T07:05:30.974Z,64.28
2018-03-19T07:08:04.232Z,64.64
2018-03-19T07:10:37.518Z,64.42
2018-03-19T07:13:10.897Z,64.12
2018-03-19T07:15:44.203Z,63.83
2018-03-19T07:18:17.464Z,63.62
2018-03-19T07:20:50.744Z,63.83
2018-03-19T07:23:24.005Z,63.16
2018-03-19T07:25:57.282Z,63.37
2018-03-19T07:28:30.541Z,63.11
2018-03-19T08:03:31.942Z,62.20
2018-03-19T08:06:05.217Z,62.35
2018-03-19T08:08:38.512Z,62.68
2018-03-19T08:11:11.775Z,62.25
2018-03-19T08:13:45.067Z,62.14
2018-03-19T09:01:50.742Z,59.49
2018-03-19T09:04:24.022Z,59.15
2018-03-19T09:06:57.318Z,58.83
2018-03-19T09:09:30.560Z,59.05
2018-03-19T09:12:04.613Z,59.17
2018-03-19T09:14:37.918Z,58.68
2018-03-19T10:02:42.509Z,58.68
2018-03-19T10:05:15.721Z,58.45
2018-03-19T10:07:49.004Z,58.54
2018-03-19T10:10:22.256Z,58.87
2018-03-19T10:12:55.561Z,59.06
2018-03-19T11:01:06.133Z,59.17
2018-03-19T11:03:40.166Z,59.03
2018-03-19T11:06:18.939Z,59.03
2018-03-19T11:08:52.201Z,58.99
2018-03-19T11:11:25.494Z,59.24
2018-03-19T11:13:58.764Z,58.75
2018-03-19T12:02:04.522Z,57.71
2018-03-19T12:04:37.780Z,58.18
2018-03-19T12:07:11.073Z,58.37
2018-03-19T12:09:44.361Z,58.52
2018-03-19T12:12:17.692Z,58.24
2018-03-19T12:14:51.670Z,58.39
2018-03-19T13:02:57.958Z,59.52
2018-03-19T13:05:31.294Z,59.77
2018-03-19T13:08:04.496Z,60.04
2018-03-19T13:10:37.786Z,59.93
2018-03-19T13:13:11.049Z,60.42
2018-03-19T14:01:15.290Z,66.04
2018-03-19T14:03:48.577Z,66.84
2018-03-19T14:06:21.841Z,64.90
2018-03-19T14:08:55.145Z,65.75
2018-03-19T14:11:28.444Z,65.34
2018-03-19T14:14:01.699Z,66.13
2018-03-19T15:02:06.662Z,66.47
2018-03-19T15:04:39.926Z,66.63
2018-03-19T15:07:13.214Z,67.19
2018-03-19T15:09:46.489Z,67.46
2018-03-19T15:12:19.781Z,68.05
2018-03-19T15:14:53.058Z,67.42
2018-03-19T15:46:43.142Z,68.87
2018-03-19T15:49:16.394Z,68.30
2018-03-19T15:51:49.685Z,68.51
2018-03-19T15:54:23.714Z,68.42
2018-03-19T15:56:57.010Z,68.56
2018-03-19T15:59:30.324Z,68.55
2018-03-19T16:31:18.960Z,69.91
2018-03-19T16:33:52.241Z,70.15
2018-03-19T16:36:25.533Z,70.29
2018-03-19T16:38:58.784Z,70.77
2018-03-19T16:41:32.101Z,71.19
2018-03-19T16:44:05.357Z,71.89
2018-03-19T16:46:38.654Z,71.42
2018-03-19T16:49:11.918Z,71.59
2018-03-19T16:51:45.209Z,72.00
2018-03-19T16:54:18.491Z,71.89
2018-03-19T16:56:51.781Z,72.26
2018-03-19T16:59:25.067Z,72.14
2018-03-19T17:01:58.331Z,73.00
2018-03-19T17:04:31.623Z,73.26
2018-03-19T17:07:04.916Z,73.53
2018-03-19T17:09:38.205Z,73.61
2018-03-19T17:12:11.492Z,74.17
2018-03-19T17:14:44.774Z,74.32
2018-03-19T17:17:18.054Z,74.27
2018-03-19T17:19:51.346Z,74.68
2018-03-19T17:22:24.618Z,74.07
2018-03-19T17:24:57.913Z,74.44
2018-03-19T17:27:31.176Z,74.11
2018-03-19T17:30:04.454Z,74.84
2018-03-19T17:32:37.717Z,74.86
2018-03-19T17:35:11.025Z,74.50
2018-03-19T17:37:45.054Z,74.77
2018-03-19T17:40:19.170Z,74.96
2018-03-19T17:42:52.436Z,74.61
2018-03-19T17:45:25.725Z,75.05
2018-03-19T17:47:58.995Z,75.19
2018-03-19T17:50:32.284Z,75.31
2018-03-19T17:53:05.541Z,74.96
2018-03-19T17:55:38.817Z,75.03
2018-03-19T17:58:12.083Z,74.82
2018-03-19T18:00:45.358Z,75.08
2018-03-19T18:03:18.637Z,74.98
2018-03-19T18:05:52.749Z,74.91
2018-03-19T18:08:26.035Z,74.69
2018-03-19T18:10:59.298Z,74.75
2018-03-19T18:13:33.359Z,74.09
2018-03-19T18:16:06.642Z,74.72
2018-03-19T18:18:39.906Z,74.76
2018-03-19T18:21:13.210Z,75.24
2018-03-19T18:23:46.477Z,74.56
2018-03-19T18:26:19.758Z,74.56
2018-03-19T18:28:53.019Z,74.90
2018-03-19T18:31:26.556Z,74.56
2018-03-19T18:33:59.840Z,74.71
2018-03-19T18:36:33.519Z,74.89
2018-03-19T18:39:06.830Z,74.94
2018-03-19T18:41:40.117Z,74.59
2018-03-19T18:44:13.384Z,74.66
2018-03-19T18:46:47.111Z,74.97
2018-03-19T18:49:20.946Z,74.63
2018-03-19T18:51:54.235Z,75.00
2018-03-19T18:54:27.493Z,74.89
2018-03-19T18:57:00.801Z,74.76
2018-03-19T18:59:34.057Z,74.69
2018-03-19T19:02:07.463Z,74.33
2018-03-19T19:04:40.735Z,74.39
2018-03-19T19:07:14.013Z,74.38
2018-03-19T19:09:47.310Z,73.93
2018-03-19T19:12:20.609Z,74.10
2018-03-19T19:14:53.949Z,74.57
2018-03-19T19:17:27.267Z,74.24
2018-03-19T19:20:00.537Z,74.41
2018-03-19T19:22:33.834Z,74.29
2018-03-19T19:25:07.102Z,74.29
2018-03-19T19:27:40.385Z,74.32
2018-03-19T19:30:14.420Z,74.59
2018-03-19T19:32:47.794Z,74.95
2018-03-19T19:35:21.890Z,75.08
2018-03-19T19:37:55.231Z,74.93
2018-03-19T19:40:29.109Z,75.24
2018-03-19T19:43:03.267Z,75.00
2018-03-19T19:45:36.556Z,74.87
2018-03-19T19:48:09.822Z,75.14
2018-03-19T19:50:43.882Z,75.22
2018-03-19T19:53:17.926Z,75.28
2018-03-19T19:55:51.222Z,75.18
2018-03-19T19:58:24.492Z,75.31
2018-03-19T20:00:57.770Z,75.04
2018-03-19T20:03:31.049Z,75.66
2018-03-19T20:06:04.332Z,75.05
2018-03-19T20:08:37.589Z,75.03
2018-03-19T20:11:11.053Z,75.09
2018-03-19T20:13:44.316Z,75.60
2018-03-19T20:16:17.607Z,75.53
2018-03-19T20:18:50.873Z,75.05
2018-03-19T20:21:24.167Z,75.21
2018-03-19T20:23:57.453Z,75.10
2018-03-19T20:26:30.715Z,75.03
2018-03-19T20:29:03.965Z,75.46
2018-03-19T20:31:37.257Z,75.43
2018-03-19T20:34:11.315Z,75.38
2018-03-19T20:36:44.576Z,75.52
2018-03-19T20:39:17.865Z,75.46
2018-03-19T20:41:51.156Z,75.61
2018-03-19T20:44:24.433Z,75.30
2018-03-19T20:46:58.461Z,75.31
2018-03-19T20:49:32.525Z,75.31
2018-03-19T20:52:05.789Z,75.08
2018-03-19T20:54:39.127Z,74.98
2018-03-19T20:57:12.333Z,75.10
2018-03-19T20:59:46.393Z,75.02
2018-03-19T21:02:19.688Z,74.65
2018-03-19T21:04:52.976Z,75.09
2018-03-19T21:07:26.253Z,75.20
2018-03-19T21:10:00.320Z,75.27
2018-03-19T21:12:33.606Z,75.25
2018-03-19T21:15:06.864Z,75.46
2018-03-19T21:17:40.164Z,75.24
2018-03-19T21:20:13.433Z,75.25
2018-03-19T21:22:46.724Z,75.08
2018-03-19T21:25:20.013Z,75.36
2018-03-19T21:27:53.400Z,75.03
2018-03-19T21:30:27.348Z,74.84
2018-03-19T21:33:00.665Z,75.10
2018-03-19T21:35:33.936Z,74.61
2018-03-19T21:38:07.220Z,75.02
2018-03-19T21:40:41.257Z,75.09
2018-03-19T21:43:14.537Z,75.40
2018-03-19T21:45:47.830Z,75.36
2018-03-19T21:48:21.096Z,75.78
2018-03-19T21:50:55.218Z,75.72
2018-03-19T21:53:29.256Z,75.75
2018-03-19T21:56:02.543Z,75.97
2018-03-19T21:58:35.835Z,75.91
2018-03-19T22:01:10.058Z,75.98
2018-03-19T22:03:43.958Z,75.73
2018-03-19T22:06:17.259Z,76.01
2018-03-19T22:08:50.521Z,76.12
2018-03-19T22:11:24.601Z,76.33
2018-03-19T22:13:57.868Z,75.95
2018-03-19T22:16:31.165Z,76.46
2018-03-19T22:19:04.425Z,76.65
2018-03-19T22:21:38.499Z,76.38
2018-03-19T22:24:12.552Z,76.88
2018-03-19T22:26:46.604Z,76.60
2018-03-19T22:29:19.887Z,76.57
2018-03-19T22:31:53.146Z,76.26
2018-03-19T22:34:27.193Z,76.35
2018-03-19T22:37:00.453Z,76.67
2018-03-19T22:39:33.737Z,76.68
2018-03-19T22:42:07.016Z,76.99
2018-03-19T22:44:40.299Z,76.94
2018-03-19T22:47:13.572Z,77.70
2018-03-19T22:49:46.875Z,77.64
2018-03-19T22:52:20.162Z,77.66
2018-03-19T22:54:53.458Z,77.51
2018-03-19T22:57:26.727Z,77.59
2018-03-19T23:00:00.026Z,77.73
2018-03-19T23:02:33.292Z,77.56
2018-03-19T23:05:23.145Z,77.12
2018-03-19T23:07:56.409Z,77.37
2018-03-19T23:10:29.696Z,77.58
2018-03-19T23:13:02.960Z,77.05
2018-03-19T23:15:37.018Z,77.00
2018-03-19T23:18:10.283Z,77.09
2018-03-19T23:20:44.336Z,76.97
2018-03-19T23:23:17.593Z,76.83
2018-03-19T23:25:51.629Z,76.67
2018-03-19T23:28:24.889Z,77.21
2018-03-19T23:30:58.174Z,76.47
2018-03-19T23:33:32.208Z,76.41
2018-03-19T23:36:05.493Z,76.54
2018-03-19T23:38:38.774Z,76.81
2018-03-19T23:41:12.822Z,76.28
2018-03-19T23:43:46.112Z,76.46
2018-03-19T23:46:19.405Z,76.20
2018-03-19T23:48:52.673Z,75.87
2018-03-19T23:51:26.720Z,76.32
2018-03-19T23:54:00.009Z,76.32
2018-03-19T23:56:33.285Z,76.29
2018-03-19T23:59:07.330Z,76.63
